Time;durP1;ratioP1;P1;durP2;ratioP2;P2;SDS_P1;SDS_P2;PMS_P1;PMS_P2;Temp;Humidity;BMP_temperature;BMP_pressure;BME280_temperature;BME280_humidity;BME280_pressure;Samples;Min_cycle;Max_cycle;Signal;HPM_P1;HPM_P2
2022/07/09 00:01:53;;;;;;;3.13;1.57;;;;;;;16.90;78.30;101911.72;4981730;28;20209;-76
2022/07/09 00:04:19;;;;;;;2.33;1.80;;;;;;;16.88;78.39;101908.28;4988123;28;20653;-74
2022/07/09 00:06:46;;;;;;;3.10;1.80;;;;;;;16.85;78.54;101908.47;4985392;28;20223;-76
2022/07/09 00:09:13;;;;;;;2.93;1.73;;;;;;;16.85;78.33;101911.16;4978402;28;20214;-75
2022/07/09 00:11:39;;;;;;;3.57;1.70;;;;;;;16.82;78.58;101909.56;4991017;28;20209;-75
2022/07/09 00:14:06;;;;;;;3.40;1.60;;;;;;;16.79;78.52;101908.94;4990633;28;20378;-76
2022/07/09 00:16:33;;;;;;;1.80;1.70;;;;;;;16.78;78.44;101907.19;4992931;28;20235;-75
2022/07/09 00:19:00;;;;;;;2.30;1.97;;;;;;;16.75;78.60;101907.41;4983728;28;20583;-75
2022/07/09 00:21:26;;;;;;;2.53;1.60;;;;;;;16.74;78.70;101900.31;4988327;28;20734;-75
2022/07/09 00:23:53;;;;;;;3.37;1.70;;;;;;;16.71;78.81;101897.81;4991987;28;20215;-76
2022/07/09 00:26:19;;;;;;;2.13;1.70;;;;;;;16.68;79.25;101898.88;4988582;28;20237;-74
2022/07/09 00:28:46;;;;;;;4.03;1.60;;;;;;;16.67;78.98;101895.34;4989059;28;20213;-77
2022/07/09 00:31:12;;;;;;;2.90;1.77;;;;;;;16.65;79.39;101886.53;4982261;28;20206;-76
2022/07/09 00:33:40;;;;;;;2.47;1.90;;;;;;;16.64;79.38;101890.19;4977411;28;20635;-76
2022/07/09 00:36:08;;;;;;;1.63;1.43;;;;;;;16.63;79.45;101896.53;4985893;28;20236;-76
2022/07/09 00:38:34;;;;;;;2.83;1.60;;;;;;;16.62;79.63;101888.53;4987954;28;20203;-76
2022/07/09 00:41:01;;;;;;;3.50;1.73;;;;;;;16.60;79.40;101894.03;4988414;28;20206;-76
2022/07/09 00:43:27;;;;;;;1.70;1.50;;;;;;;16.59;79.64;101888.75;4982635;28;20228;-76
2022/07/09 00:45:54;;;;;;;3.13;1.70;;;;;;;16.56;79.98;101889.81;4978956;28;20460;-75
2022/07/09 00:48:20;;;;;;;2.63;1.87;;;;;;;16.55;79.79;101890.78;4983560;28;20220;-75
2022/07/09 00:50:49;;;;;;;3.23;2.13;;;;;;;16.54;79.82;101889.06;4987131;28;20206;-76
2022/07/09 00:53:17;;;;;;;3.33;2.20;;;;;;;16.51;80.05;101886.56;4986541;28;20229;-76
2022/07/09 00:55:44;;;;;;;3.73;2.20;;;;;;;16.50;80.25;101889.34;4987139;28;20225;-76
2022/07/09 00:58:12;;;;;;;3.83;2.17;;;;;;;16.48;80.40;101876.00;4987772;28;20248;-76
2022/07/09 01:00:38;;;;;;;3.13;2.40;;;;;;;16.47;80.62;101889.59;4980033;28;20212;-76
2022/07/09 01:03:05;;;;;;;3.10;1.63;;;;;;;16.46;80.86;101880.66;4982289;28;20208;-76
2022/07/09 01:05:35;;;;;;;4.47;2.33;;;;;;;16.46;81.00;101885.19;4988036;28;20601;-75
2022/07/09 01:08:05;;;;;;;2.27;1.77;;;;;;;16.44;80.81;101877.22;4993933;28;20262;-76
2022/07/09 01:10:32;;;;;;;3.00;1.70;;;;;;;16.43;80.80;101871.94;4991335;28;20269;-75
2022/07/09 01:12:59;;;;;;;3.20;1.93;;;;;;;16.40;80.81;101881.06;4987861;28;20225;-76
2022/07/09 01:15:26;;;;;;;4.13;2.43;;;;;;;16.38;80.94;101883.00;4987834;28;20228;-76
2022/07/09 01:17:52;;;;;;;3.97;2.00;;;;;;;16.35;80.73;101876.97;4991111;28;20208;-76
2022/07/09 01:20:22;;;;;;;3.43;2.10;;;;;;;16.29;80.63;101878.28;4988929;28;20706;-74
2022/07/09 01:22:49;;;;;;;5.97;2.17;;;;;;;16.22;80.67;101882.31;4982127;28;20225;-76
2022/07/09 01:25:18;;;;;;;3.10;1.93;;;;;;;16.16;80.27;101885.41;4983420;28;20237;-76
2022/07/09 01:27:44;;;;;;;4.27;2.00;;;;;;;16.10;80.40;101880.47;4984339;28;20409;-75
2022/07/09 01:30:11;;;;;;;3.80;2.07;;;;;;;16.09;81.02;101881.44;4980915;28;20206;-76
2022/07/09 01:32:38;;;;;;;3.23;2.70;;;;;;;16.07;81.15;101880.66;4985463;28;20244;-76
2022/07/09 01:35:06;;;;;;;4.27;2.40;;;;;;;16.07;81.85;101870.78;4983407;28;20240;-76
2022/07/09 01:37:33;;;;;;;8.20;2.33;;;;;;;16.09;81.93;101870.69;4987454;28;20245;-76
2022/07/09 01:40:00;;;;;;;3.50;2.33;;;;;;;16.10;82.26;101877.78;4991826;28;20214;-76
2022/07/09 01:42:26;;;;;;;6.70;2.43;;;;;;;16.12;82.26;101878.53;4982803;28;20215;-76
2022/07/09 01:44:53;;;;;;;3.17;2.30;;;;;;;16.14;82.46;101860.47;4987833;28;20229;-76
2022/07/09 01:47:20;;;;;;;2.30;2.00;;;;;;;16.16;82.31;101859.41;4983774;28;20674;-75
2022/07/09 01:49:46;;;;;;;4.37;2.77;;;;;;;16.17;82.31;101858.44;4986146;28;20212;-76
2022/07/09 01:52:13;;;;;;;3.80;2.20;;;;;;;16.20;82.61;101860.06;4979305;28;21696;-76
2022/07/09 01:54:41;;;;;;;4.40;2.00;;;;;;;16.20;82.41;101849.31;4987587;28;20237;-76
2022/07/09 01:57:07;;;;;;;2.87;2.00;;;;;;;16.19;82.25;101847.59;4984358;28;20221;-76
2022/07/09 01:59:34;;;;;;;2.63;2.23;;;;;;;16.17;82.24;101847.69;4986130;28;20209;-77
2022/07/09 02:02:01;;;;;;;2.63;1.70;;;;;;;16.15;81.90;101849.59;4978760;28;20240;-76
2022/07/09 02:04:27;;;;;;;7.40;2.40;;;;;;;16.15;82.24;101856.81;4983254;28;20260;-77
2022/07/09 02:06:56;;;;;;;5.20;2.37;;;;;;;16.14;82.30;101852.41;4976780;28;20202;-76
2022/07/09 02:09:22;;;;;;;2.97;2.10;;;;;;;16.14;82.24;101844.34;4982283;28;20233;-76
2022/07/09 02:11:50;;;;;;;4.37;2.70;;;;;;;16.14;82.31;101845.19;4983341;28;20210;-75
2022/07/09 02:14:17;;;;;;;5.10;2.50;;;;;;;16.14;82.80;101828.22;4989379;28;20240;-76
2022/07/09 02:16:43;;;;;;;8.97;2.90;;;;;;;16.16;83.01;101839.72;4987978;28;20291;-76
2022/07/09 02:19:10;;;;;;;8.40;3.17;;;;;;;16.16;83.08;101834.34;4984644;28;20664;-76
2022/07/09 02:21:37;;;;;;;4.73;3.10;;;;;;;16.16;83.23;101829.84;4985538;28;20271;-76
2022/07/09 02:24:03;;;;;;;5.63;3.10;;;;;;;16.15;83.45;101830.78;4986813;28;20221;-76
2022/07/09 02:26:30;;;;;;;5.27;3.10;;;;;;;16.15;83.37;101830.78;4985023;28;20229;-76
2022/07/09 02:28:58;;;;;;;5.53;2.77;;;;;;;16.15;83.26;101822.72;4984559;28;20663;-75
2022/07/09 02:31:25;;;;;;;5.83;3.43;;;;;;;16.15;83.16;101821.88;4990123;28;20196;-76
2022/07/09 02:33:52;;;;;;;5.03;2.67;;;;;;;16.15;83.16;101827.25;4983678;28;20224;-76
2022/07/09 02:36:18;;;;;;;5.73;3.10;;;;;;;16.14;83.47;101818.31;4981463;28;20231;-76
2022/07/09 02:38:45;;;;;;;3.57;2.87;;;;;;;16.13;83.12;101821.13;4984788;28;20201;-76
2022/07/09 02:41:11;;;;;;;5.47;2.93;;;;;;;16.13;83.35;101821.13;4983511;28;20213;-76
2022/07/09 02:43:38;;;;;;;4.67;3.03;;;;;;;16.12;83.58;101816.72;4982489;28;20201;-76
2022/07/09 02:46:07;;;;;;;3.47;2.60;;;;;;;16.12;83.58;101809.50;5015765;23;20713;-82
2022/07/09 02:48:33;;;;;;;6.43;2.90;;;;;;;16.12;83.83;101805.97;5031769;28;20236;-82
2022/07/09 02:51:00;;;;;;;6.23;2.93;;;;;;;16.11;83.59;101810.50;5011309;28;20233;-82
2022/07/09 02:53:26;;;;;;;7.03;3.10;;;;;;;16.09;83.44;101807.06;5047166;22;20791;-72
2022/07/09 02:55:53;;;;;;;8.30;3.03;;;;;;;16.03;82.85;101812.81;5001686;28;20321;-74
2022/07/09 02:58:19;;;;;;;5.13;2.83;;;;;;;15.95;82.92;101816.03;5007074;28;20211;-73
2022/07/09 03:00:46;;;;;;;7.53;2.80;;;;;;;15.92;83.25;101812.69;5005913;28;20764;-74
2022/07/09 03:03:14;;;;;;;4.10;2.90;;;;;;;15.90;83.65;101828.94;4999660;28;20577;-75
2022/07/09 03:05:40;;;;;;;4.33;2.70;;;;;;;15.91;83.92;101824.41;5009515;28;20224;-75
2022/07/09 03:08:08;;;;;;;5.43;2.90;;;;;;;15.93;84.19;101819.81;5013829;28;20230;-74
2022/07/09 03:10:35;;;;;;;6.07;3.50;;;;;;;15.94;84.48;101816.16;5010272;28;20208;-74
2022/07/09 03:13:01;;;;;;;3.57;3.03;;;;;;;15.97;84.40;101816.78;5008613;28;20199;-74
2022/07/09 03:15:28;;;;;;;5.20;3.40;;;;;;;16.00;84.40;101812.16;5004152;28;20237;-74
2022/07/09 03:17:54;;;;;;;4.00;2.93;;;;;;;16.00;84.39;101813.03;5015130;28;20221;-75
2022/07/09 03:20:22;;;;;;;7.03;3.80;;;;;;;16.02;84.54;101819.16;5001385;28;20207;-72
2022/07/09 03:22:49;;;;;;;4.80;2.93;;;;;;;16.03;84.77;101817.34;4999614;28;20200;-74
2022/07/09 03:25:15;;;;;;;7.17;3.80;;;;;;;16.05;84.70;101823.47;5000212;28;20227;-74
2022/07/09 03:27:42;;;;;;;4.13;3.10;;;;;;;16.06;84.74;101818.00;5012809;28;20589;-73
2022/07/09 03:30:09;;;;;;;4.33;3.37;;;;;;;16.08;84.85;101815.22;5005457;28;20221;-73
2022/07/09 03:32:36;;;;;;;6.20;4.23;;;;;;;16.09;84.87;101816.94;5004250;28;20259;-74
2022/07/09 03:35:02;;;;;;;5.97;3.80;;;;;;;16.09;85.07;101811.56;5005003;28;20586;-74
2022/07/09 03:37:30;;;;;;;6.17;4.10;;;;;;;16.09;85.18;101814.25;5009202;28;20223;-74
2022/07/09 03:39:57;;;;;;;10.93;4.53;;;;;;;16.10;85.13;101805.22;5013172;28;20208;-75
2022/07/09 03:42:23;;;;;;;6.83;3.67;;;;;;;16.09;85.12;101807.06;5005084;28;20212;-73
2022/07/09 03:44:50;;;;;;;7.57;3.57;;;;;;;16.10;85.42;101808.78;5005412;28;20207;-73
2022/07/09 03:47:16;;;;;;;5.90;3.73;;;;;;;16.11;85.39;101812.31;5002521;28;20605;-75
2022/07/09 03:49:43;;;;;;;5.47;4.27;;;;;;;16.11;85.53;101801.56;5003190;28;20637;-73
2022/07/09 03:52:09;;;;;;;6.33;4.30;;;;;;;16.12;85.57;101811.34;5005566;28;20226;-75
2022/07/09 03:54:37;;;;;;;4.47;3.77;;;;;;;16.12;85.44;101814.03;5007505;28;20715;-74
2022/07/09 03:57:04;;;;;;;5.37;4.07;;;;;;;16.13;85.77;101802.28;5005044;28;20230;-74
2022/07/09 03:59:30;;;;;;;4.20;3.80;;;;;;;16.12;85.99;101801.44;5009594;28;20218;-75
2022/07/09 04:01:57;;;;;;;6.60;4.47;;;;;;;16.13;85.73;101802.28;5008536;28;20240;-74
2022/07/09 04:04:23;;;;;;;7.47;4.00;;;;;;;16.13;86.11;101802.28;5002467;28;20862;-74
2022/07/09 04:06:50;;;;;;;7.83;4.10;;;;;;;16.14;85.65;101793.28;4999848;28;20288;-73
2022/07/09 04:09:17;;;;;;;6.70;4.07;;;;;;;16.15;86.06;101795.00;5000960;28;20213;-75
2022/07/09 04:11:44;;;;;;;7.03;3.93;;;;;;;16.14;85.99;101806.72;5002348;28;20205;-73
2022/07/09 04:14:11;;;;;;;7.67;3.57;;;;;;;16.13;85.81;101805.84;5005741;28;20233;-74
2022/07/09 04:16:37;;;;;;;6.70;3.60;;;;;;;16.13;85.81;101800.47;5007727;28;20729;-75
2022/07/09 04:19:04;;;;;;;13.30;4.43;;;;;;;16.15;86.02;101805.75;5016965;28;20217;-73
2022/07/09 04:21:30;;;;;;;7.77;3.83;;;;;;;16.14;86.09;101809.41;5010841;28;20207;-75
2022/07/09 04:23:57;;;;;;;7.33;4.23;;;;;;;16.14;85.96;101804.88;5006533;28;20207;-75
2022/07/09 04:26:23;;;;;;;9.47;3.77;;;;;;;16.15;86.00;101795.84;5006794;28;20344;-74
2022/07/09 04:28:51;;;;;;;7.53;3.70;;;;;;;16.15;85.96;101789.63;5004875;28;20218;-75
2022/07/09 04:31:19;;;;;;;8.83;3.83;;;;;;;16.16;86.11;101796.72;5015363;28;20224;-75
2022/07/09 04:33:45;;;;;;;8.67;4.27;;;;;;;16.15;86.30;101790.47;5003909;28;20270;-75
2022/07/09 04:36:12;;;;;;;8.23;4.13;;;;;;;16.17;86.25;101793.06;5010224;28;20230;-73
2022/07/09 04:38:38;;;;;;;7.57;4.23;;;;;;;16.17;86.53;101793.94;5011527;28;20216;-75
2022/07/09 04:41:05;;;;;;;8.60;4.10;;;;;;;16.18;86.41;101794.78;5007627;28;20212;-73
2022/07/09 04:43:32;;;;;;;10.80;4.73;;;;;;;16.19;86.63;101794.69;5004830;28;20673;-74
2022/07/09 04:46:00;;;;;;;8.33;4.37;;;;;;;16.20;86.82;101799.09;5007259;28;20224;-75
2022/07/09 04:48:27;;;;;;;10.60;4.70;;;;;;;16.20;86.61;101792.88;5012246;28;20610;-76
2022/07/09 04:50:53;;;;;;;8.37;4.80;;;;;;;16.22;86.78;101796.31;5005760;28;20240;-74
2022/07/09 04:53:20;;;;;;;9.03;4.40;;;;;;;16.22;86.89;101786.41;5007278;28;20203;-75
2022/07/09 04:55:46;;;;;;;11.90;5.10;;;;;;;16.25;87.17;101788.03;5006772;28;20247;-75
2022/07/09 04:58:13;;;;;;;7.00;3.93;;;;;;;16.27;87.24;101783.41;5005464;28;20222;-76
2022/07/09 05:00:39;;;;;;;6.33;4.00;;;;;;;16.30;87.45;101778.66;5009543;28;20215;-74
2022/07/09 05:03:07;;;;;;;8.00;4.57;;;;;;;16.33;87.49;101777.59;4999530;28;20220;-74
2022/07/09 05:05:34;;;;;;;7.50;4.50;;;;;;;16.35;87.34;101772.13;5001443;28;20219;-74
2022/07/09 05:08:00;;;;;;;6.20;4.57;;;;;;;16.39;87.31;101773.63;5003261;28;20211;-74
2022/07/09 05:10:27;;;;;;;11.77;4.37;;;;;;;16.41;87.53;101777.06;5002656;28;20224;-72
2022/07/09 05:12:54;;;;;;;7.93;4.53;;;;;;;16.43;87.32;101773.31;5014057;28;20204;-74
2022/07/09 05:15:20;;;;;;;7.57;4.67;;;;;;;16.45;87.45;101778.59;5010212;28;20232;-74
2022/07/09 05:17:47;;;;;;;9.93;4.43;;;;;;;16.47;87.41;101774.81;5006606;28;20803;-73
2022/07/09 05:20:15;;;;;;;6.20;4.27;;;;;;;16.51;87.58;101772.75;5001972;28;20229;-75
2022/07/09 05:22:41;;;;;;;4.60;4.07;;;;;;;16.53;87.42;101778.91;5009720;28;20217;-75
2022/07/09 05:25:08;;;;;;;7.57;4.37;;;;;;;16.55;87.34;101769.75;5008792;28;20235;-73
2022/07/09 05:27:44;;;;;;;6.00;4.73;;;;;;;16.57;87.16;101781.28;5003058;28;20679;-75
2022/07/09 05:30:12;;;;;;;8.27;4.17;;;;;;;16.59;87.22;101762.34;5006237;28;20215;-74
2022/07/09 05:32:39;;;;;;;4.77;4.10;;;;;;;16.61;87.02;101765.78;5001462;28;20200;-74
2022/07/09 05:35:06;;;;;;;5.23;4.07;;;;;;;16.62;86.65;101756.75;5000181;28;20236;-75
2022/07/09 05:37:34;;;;;;;6.97;3.93;;;;;;;16.63;86.66;101756.66;5003972;28;20215;-75
2022/07/09 05:40:05;;;;;;;4.53;3.80;;;;;;;16.65;86.36;101760.13;5008843;28;20232;-75
2022/07/09 05:42:32;;;;;;;4.47;4.00;;;;;;;16.69;86.34;101762.56;5001410;28;20291;-74
2022/07/09 05:44:58;;;;;;;4.83;4.03;;;;;;;16.71;86.35;101771.38;5006315;28;20206;-75
2022/07/09 05:47:25;;;;;;;4.77;4.27;;;;;;;16.73;86.29;101764.94;5008071;28;20206;-72
2022/07/09 05:49:52;;;;;;;6.30;4.00;;;;;;;16.78;86.31;101778.06;5004471;28;20482;-75
2022/07/09 05:52:18;;;;;;;6.13;4.00;;;;;;;16.81;86.17;101777.84;5007878;28;20687;-75
2022/07/09 05:54:46;;;;;;;6.40;4.23;;;;;;;16.84;85.90;101778.47;5005954;28;20768;-74
2022/07/09 05:57:12;;;;;;;6.17;3.40;;;;;;;16.86;85.90;101779.22;5008490;28;20225;-74
2022/07/09 05:59:39;;;;;;;7.53;3.70;;;;;;;16.90;85.97;101788.78;5013149;28;20205;-74
2022/07/09 06:02:06;;;;;;;9.27;3.83;;;;;;;16.96;85.77;101787.50;5005365;28;20424;-75
2022/07/09 06:04:33;;;;;;;4.67;3.57;;;;;;;16.98;85.75;101786.44;5002849;28;20209;-75
2022/07/09 06:06:59;;;;;;;4.43;3.37;;;;;;;17.02;85.72;101777.13;4995511;28;20237;-75
2022/07/09 06:09:26;;;;;;;4.20;3.80;;;;;;;17.06;85.59;101783.16;5000215;28;20221;-75
2022/07/09 06:11:54;;;;;;;4.53;4.03;;;;;;;17.10;85.64;101784.66;4998786;28;20210;-74
2022/07/09 06:14:20;;;;;;;5.90;3.23;;;;;;;17.15;85.50;101784.34;4997651;28;20267;-74
2022/07/09 06:16:47;;;;;;;7.20;3.83;;;;;;;17.20;85.27;101785.69;5002897;28;20232;-74
2022/07/09 06:19:13;;;;;;;6.37;3.60;;;;;;;17.25;85.35;101778.16;4999133;28;20593;-74
2022/07/09 06:21:40;;;;;;;5.30;3.60;;;;;;;17.32;85.22;101781.28;5002092;28;20214;-74
2022/07/09 06:24:07;;;;;;;6.60;3.90;;;;;;;17.38;84.87;101769.19;5005921;28;20212;-73
2022/07/09 06:26:34;;;;;;;6.37;3.40;;;;;;;17.44;84.61;101768.72;5000135;28;20242;-75
2022/07/09 06:29:02;;;;;;;3.73;3.20;;;;;;;17.51;84.29;101767.31;4999905;28;20212;-74
2022/07/09 06:31:28;;;;;;;5.87;2.87;;;;;;;17.59;84.17;101768.44;5006035;28;20301;-74
2022/07/09 06:33:56;;;;;;;3.40;2.93;;;;;;;17.70;83.65;101759.59;5002984;28;20209;-74
2022/07/09 06:36:23;;;;;;;7.43;3.50;;;;;;;17.84;83.77;101770.19;4999988;28;20264;-74
2022/07/09 06:41:34;;;;;;;4.00;3.30;;;;;;;18.10;81.87;101778.09;5004202;28;20211;-75
2022/07/09 06:44:02;;;;;;;4.23;3.23;;;;;;;18.17;80.36;101773.94;5001466;28;20286;-75
2022/07/09 06:46:28;;;;;;;8.20;3.07;;;;;;;18.23;79.64;101768.94;5004882;28;20237;-74
2022/07/09 06:48:55;;;;;;;4.53;2.80;;;;;;;18.28;78.59;101771.25;4995160;28;20210;-74
2022/07/09 06:51:21;;;;;;;3.73;2.87;;;;;;;18.33;77.99;101769.94;5000446;28;20204;-74
2022/07/09 06:53:48;;;;;;;3.47;2.10;;;;;;;18.38;77.11;101767.75;4997409;28;20484;-75
2022/07/09 06:56:14;;;;;;;2.63;2.00;;;;;;;18.42;76.48;101762.13;4998693;28;20239;-73
2022/07/09 06:58:41;;;;;;;6.23;1.93;;;;;;;18.45;75.81;101759.19;4992098;28;20680;-73
2022/07/09 07:01:08;;;;;;;3.53;1.63;;;;;;;18.52;75.38;101758.56;4991546;28;20212;-75
2022/07/09 07:03:35;;;;;;;1.90;1.30;;;;;;;18.63;75.20;101752.38;5000106;28;20667;-73
2022/07/09 07:06:01;;;;;;;8.50;1.63;;;;;;;18.76;74.84;101749.53;4999019;28;20224;-74
2022/07/09 07:08:28;;;;;;;10.73;2.53;;;;;;;18.87;73.93;101744.97;5003251;28;20205;-71
2022/07/09 07:10:54;;;;;;;1.57;1.40;;;;;;;19.04;73.77;101752.56;5002959;28;20205;-71
2022/07/09 07:13:21;;;;;;;5.10;1.90;;;;;;;19.20;73.21;101745.91;5008526;28;20216;-73
2022/07/09 07:15:49;;;;;;;3.80;1.50;;;;;;;19.29;72.22;101740.63;5003196;28;20229;-72
2022/07/09 07:18:17;;;;;;;5.80;1.50;;;;;;;19.35;71.24;101737.38;5000857;28;20685;-73
2022/07/09 07:20:43;;;;;;;4.03;1.60;;;;;;;19.39;70.65;101746.97;5005347;28;20221;-72
2022/07/09 07:23:10;;;;;;;3.97;1.30;;;;;;;19.46;70.40;101741.91;5001662;28;20215;-72
2022/07/09 07:25:36;;;;;;;2.47;1.50;;;;;;;19.57;70.08;101738.34;5005117;28;20617;-73
2022/07/09 07:28:04;;;;;;;11.70;1.50;;;;;;;19.65;69.71;101738.56;4998669;28;20231;-73
2022/07/09 07:30:32;;;;;;;5.20;1.50;;;;;;;19.77;69.26;101742.91;5003708;28;20204;-74
2022/07/09 07:32:59;;;;;;;2.63;1.20;;;;;;;19.89;69.00;101738.31;5005520;28;20759;-75
2022/07/09 07:35:31;;;;;;;1.97;1.10;;;;;;;20.01;68.26;101748.94;5003718;28;20356;-73
2022/07/09 07:37:57;;;;;;;1.60;1.00;;;;;;;20.04;67.63;101743.28;5003377;28;20217;-73
2022/07/09 07:40:24;;;;;;;2.23;1.00;;;;;;;20.10;67.75;101745.44;5010461;28;20217;-71
2022/07/09 07:42:51;;;;;;;1.80;1.03;;;;;;;20.17;67.33;101750.34;5007560;28;20210;-72
2022/07/09 07:45:18;;;;;;;1.80;1.07;;;;;;;20.21;66.94;101744.53;5016718;28;20616;-73
2022/07/09 07:47:44;;;;;;;8.23;2.00;;;;;;;20.25;66.66;101747.81;5007375;28;20653;-73
2022/07/09 07:50:11;;;;;;;5.33;1.70;;;;;;;20.28;66.44;101744.84;5006287;28;20211;-72
2022/07/09 07:52:38;;;;;;;26.17;4.93;;;;;;;20.31;66.28;101741.88;5012252;28;20549;-72
2022/07/09 07:55:06;;;;;;;3.87;1.70;;;;;;;20.32;66.17;101740.88;5009819;28;20241;-72
2022/07/09 07:57:32;;;;;;;120.03;15.30;;;;;;;20.37;66.27;101734.13;5015879;28;20699;-71
2022/07/09 07:59:59;;;;;;;10.40;3.28;;;;;;;20.52;66.87;101731.91;5016615;28;20585;-71
2022/07/09 08:02:25;;;;;;;4.45;2.22;;;;;;;20.62;65.95;101735.50;5015360;28;20566;-72
2022/07/09 08:04:52;;;;;;;7.87;2.57;;;;;;;20.66;65.09;101733.38;5015812;28;20221;-72
2022/07/09 08:07:18;;;;;;;5.57;2.75;;;;;;;20.67;64.72;101735.97;5013510;28;20496;-72
2022/07/09 08:09:46;;;;;;;6.33;2.53;;;;;;;20.72;64.91;101727.44;5012369;28;20221;-72
2022/07/09 08:12:12;;;;;;;5.38;2.08;;;;;;;20.78;64.97;101721.50;5016882;28;20623;-71
2022/07/09 08:14:39;;;;;;;5.18;1.60;;;;;;;20.88;64.43;101713.38;5007524;28;20206;-72
2022/07/09 08:17:06;;;;;;;2.83;1.60;;;;;;;20.98;64.07;101712.41;5007959;28;20699;-73
2022/07/09 08:19:32;;;;;;;2.78;1.77;;;;;;;21.03;63.25;101712.84;5009899;28;20214;-72
2022/07/09 08:21:59;;;;;;;3.35;1.90;;;;;;;21.04;62.81;101708.28;5012792;28;20207;-72
2022/07/09 08:24:26;;;;;;;37.28;6.50;;;;;;;21.03;62.83;101702.00;5016063;28;20206;-72
2022/07/09 08:26:54;;;;;;;34.40;5.22;;;;;;;21.06;62.94;101703.59;5013453;28;20590;-68
2022/07/09 08:29:21;;;;;;;11.45;2.55;;;;;;;21.09;62.73;101708.75;5015031;28;20210;-68
2022/07/09 08:31:49;;;;;;;2.90;2.08;;;;;;;21.09;62.27;101704.19;5014708;28;20212;-68
2022/07/09 08:34:15;;;;;;;3.58;2.30;;;;;;;21.09;61.90;101697.91;5012121;28;20206;-68
2022/07/09 08:36:42;;;;;;;1.45;1.35;;;;;;;21.08;61.84;101701.59;5008731;28;20233;-68
2022/07/09 08:39:08;;;;;;;2.00;1.50;;;;;;;21.09;61.62;101695.19;5008188;28;20215;-68
2022/07/09 08:41:35;;;;;;;2.10;1.43;;;;;;;21.11;61.46;101693.22;5010163;28;20207;-68
2022/07/09 08:44:04;;;;;;;2.60;1.40;;;;;;;21.15;61.41;101691.91;5012259;28;20204;-68
2022/07/09 08:46:33;;;;;;;2.88;1.65;;;;;;;21.24;61.17;101685.69;5010700;28;20230;-68
2022/07/09 08:49:00;;;;;;;2.33;1.33;;;;;;;21.28;60.66;101692.53;5012319;28;20202;-68
2022/07/09 08:51:27;;;;;;;2.70;1.50;;;;;;;21.31;60.61;101694.97;5003875;28;20686;-68
2022/07/09 08:53:55;;;;;;;2.05;1.67;;;;;;;21.34;60.58;101691.97;5025507;22;20214;-70
2022/07/09 08:56:21;;;;;;;2.38;1.90;;;;;;;21.35;60.16;101690.97;4998804;28;20699;-70
2022/07/09 08:58:48;;;;;;;2.60;1.70;;;;;;;21.36;60.51;101689.97;5008902;28;20218;-70
2022/07/09 09:01:17;;;;;;;3.58;1.70;;;;;;;21.40;60.67;101687.84;5007781;28;20207;-71
2022/07/09 09:03:44;;;;;;;1.67;1.38;;;;;;;21.40;59.97;101685.97;5004309;28;20226;-70
2022/07/09 09:06:12;;;;;;;3.55;1.42;;;;;;;21.38;60.14;101687.13;5005162;28;20285;-71
2022/07/09 09:08:40;;;;;;;2.75;1.85;;;;;;;21.33;59.92;101690.25;4998720;28;20211;-71
2022/07/09 09:11:09;;;;;;;2.25;1.70;;;;;;;21.28;59.95;101683.56;5006500;28;20210;-72
2022/07/09 09:13:40;;;;;;;2.42;1.65;;;;;;;21.23;60.23;101683.97;5003886;28;20210;-71
2022/07/09 09:16:08;;;;;;;2.38;1.73;;;;;;;21.20;60.81;101694.22;5003730;28;20388;-72
2022/07/09 09:18:37;;;;;;;2.97;2.00;;;;;;;21.15;61.00;101690.06;5004070;28;20213;-72
2022/07/09 09:21:05;;;;;;;2.70;1.75;;;;;;;21.12;60.98;101689.50;4999727;28;20203;-71
2022/07/09 09:23:39;;;;;;;4.25;1.70;;;;;;;21.09;61.36;101690.63;5004576;28;20535;-71
2022/07/09 09:26:10;;;;;;;3.70;2.05;;;;;;;21.08;61.38;101688.06;5007291;28;20213;-72
2022/07/09 09:28:47;;;;;;;4.38;2.10;;;;;;;21.05;61.77;101682.91;5005770;28;20215;-71
2022/07/09 09:31:24;;;;;;;2.05;1.90;;;;;;;21.01;61.83;101674.22;5005883;28;20594;-72
2022/07/09 09:33:55;;;;;;;4.68;2.00;;;;;;;21.00;62.14;101680.63;5008016;28;20667;-71
2022/07/09 09:36:29;;;;;;;3.22;2.20;;;;;;;21.02;62.31;101684.06;5001318;28;20285;-72
2022/07/09 09:38:55;;;;;;;4.10;2.00;;;;;;;21.02;62.48;101681.34;5002867;28;20195;-71
2022/07/09 09:41:23;;;;;;;3.58;1.98;;;;;;;21.00;62.39;101687.88;5007064;28;20214;-72
2022/07/09 09:43:53;;;;;;;4.80;1.98;;;;;;;20.98;62.54;101688.03;5006404;28;20241;-72
2022/07/09 09:46:19;;;;;;;2.45;2.20;;;;;;;20.97;62.72;101693.56;5007853;28;20198;-72
2022/07/09 09:48:47;;;;;;;2.28;1.50;;;;;;;20.95;62.54;101684.75;4999849;28;20213;-72
2022/07/09 09:51:19;;;;;;;3.53;1.95;;;;;;;20.93;62.78;101689.47;5007665;28;20210;-72
2022/07/09 09:53:47;;;;;;;2.65;1.98;;;;;;;20.93;62.87;101687.63;5003983;28;20587;-72
2022/07/09 09:56:15;;;;;;;3.83;2.00;;;;;;;20.94;62.93;101694.75;4999268;28;20456;-72
2022/07/09 09:58:41;;;;;;;2.73;2.10;;;;;;;20.97;62.99;101680.03;5005068;28;20663;-72
2022/07/09 10:01:08;;;;;;;3.30;2.70;;;;;;;21.00;62.97;101677.91;5001649;28;20507;-72
2022/07/09 10:03:35;;;;;;;3.73;2.10;;;;;;;21.04;62.93;101681.22;5007934;28;20205;-72
2022/07/09 10:06:02;;;;;;;4.75;2.17;;;;;;;21.07;62.50;101667.38;5002419;28;20226;-72
2022/07/09 10:08:30;;;;;;;2.47;2.15;;;;;;;21.09;62.68;101665.41;5000732;28;20208;-72
2022/07/09 10:10:56;;;;;;;1.98;1.50;;;;;;;21.13;62.35;101664.97;5004463;28;20210;-72
2022/07/09 10:13:23;;;;;;;3.95;1.98;;;;;;;21.16;61.74;101655.69;5006938;28;20302;-73
2022/07/09 10:15:51;;;;;;;4.07;1.50;;;;;;;21.20;61.42;101657.16;5007221;28;20317;-73
2022/07/09 10:18:18;;;;;;;5.90;1.92;;;;;;;21.26;61.22;101664.72;5007414;28;20289;-73
2022/07/09 10:20:45;;;;;;;2.97;1.67;;;;;;;21.29;60.34;101661.75;5006632;28;20206;-73
2022/07/09 10:23:21;;;;;;;2.40;1.73;;;;;;;21.32;60.15;101656.00;5001825;28;20210;-73
2022/07/09 10:25:52;;;;;;;4.25;1.73;;;;;;;21.41;60.13;101665.16;5005524;28;20262;-72
2022/07/09 10:28:20;;;;;;;3.88;1.60;;;;;;;21.48;60.05;101661.75;5006246;28;20293;-73
2022/07/09 10:30:47;;;;;;;2.30;1.38;;;;;;;21.59;59.99;101660.72;5001745;28;20222;-71
2022/07/09 10:33:14;;;;;;;2.08;1.48;;;;;;;21.68;59.29;101662.56;5002240;28;20211;-74
2022/07/09 10:35:42;;;;;;;4.38;1.80;;;;;;;21.75;58.90;101646.56;5000237;28;20235;-72
2022/07/09 10:38:09;;;;;;;2.67;1.42;;;;;;;21.83;58.42;101654.84;5002738;28;20203;-71
2022/07/09 10:40:40;;;;;;;1.58;1.25;;;;;;;21.96;58.09;101652.69;4999874;28;20589;-71
2022/07/09 10:43:09;;;;;;;1.33;1.23;;;;;;;22.10;57.84;101649.53;5005441;28;20694;-71
2022/07/09 10:45:40;;;;;;;2.20;1.30;;;;;;;22.29;57.46;101651.31;5007384;28;20218;-72
2022/07/09 10:48:09;;;;;;;2.20;1.15;;;;;;;22.40;56.44;101639.41;5006737;28;20210;-71
2022/07/09 10:50:39;;;;;;;2.55;0.90;;;;;;;22.49;55.64;101652.94;5001307;28;20212;-71
2022/07/09 10:53:06;;;;;;;1.45;1.35;;;;;;;22.51;54.60;101650.09;4992064;28;20304;-72
2022/07/09 10:55:33;;;;;;;3.90;1.08;;;;;;;22.55;54.41;101656.06;4996028;28;20235;-72
2022/07/09 10:58:02;;;;;;;2.30;1.30;;;;;;;22.60;54.13;101651.03;5000152;28;20607;-72
2022/07/09 11:00:32;;;;;;;3.45;1.13;;;;;;;22.64;53.39;101653.28;5009729;28;20206;-72
2022/07/09 11:03:00;;;;;;;1.38;1.10;;;;;;;22.66;53.03;101643.13;4999671;28;20603;-72
2022/07/09 11:05:27;;;;;;;2.00;1.10;;;;;;;22.69;52.63;101642.00;5006779;28;20309;-72
2022/07/09 11:07:59;;;;;;;1.38;0.88;;;;;;;22.74;52.26;101643.25;5007737;28;20206;-72
2022/07/09 11:10:27;;;;;;;1.00;0.90;;;;;;;22.80;52.17;101639.09;5008742;28;20207;-72
2022/07/09 11:12:54;;;;;;;1.25;0.95;;;;;;;22.81;51.84;101633.50;5006173;28;20668;-72
2022/07/09 11:15:22;;;;;;;2.35;1.00;;;;;;;22.81;51.50;101630.78;5007685;28;20612;-71
2022/07/09 11:17:57;;;;;;;4.07;1.20;;;;;;;22.84;51.83;101630.47;5004437;28;20233;-72
2022/07/09 11:20:23;;;;;;;1.90;1.65;;;;;;;22.92;52.04;101626.16;5004939;28;20291;-72
2022/07/09 11:22:50;;;;;;;2.00;1.10;;;;;;;22.98;51.82;101618.22;5004192;28;20233;-71
2022/07/09 11:25:18;;;;;;;0.95;0.90;;;;;;;23.06;51.79;101612.91;5004438;28;20230;-72
2022/07/09 11:27:44;;;;;;;2.15;1.02;;;;;;;23.13;51.13;101608.53;5006261;28;20660;-72